Time;durP1;ratioP1;P1;durP2;ratioP2;P2;SDS_P1;SDS_P2;PMS_P1;PMS_P2;Temp;Humidity;BMP_temperature;BMP_pressure;BME280_temperature;BME280_humidity;BME280_pressure;Samples;Min_cycle;Max_cycle;Signal;HPM_P1;HPM_P2
2022/10/16 00:01:13;;;;;;;8.57;0.50;;;;;;;15.31;77.52;100132.56;7385344;19;20070;-62
2022/10/16 00:03:42;;;;;;;7.63;0.77;;;;;;;15.34;77.86;100135.63;7386749;19;20015;-63
2022/10/16 00:06:10;;;;;;;13.05;0.60;;;;;;;15.32;77.27;100135.03;7387592;19;20375;-62
2022/10/16 00:08:37;;;;;;;17.60;0.90;;;;;;;15.31;77.52;100132.56;7380969;19;20023;-63
2022/10/16 00:11:17;;;;;;;11.10;0.70;;;;;;;15.32;78.04;100128.91;7386762;19;20011;-62
2022/10/16 00:13:48;;;;;;;12.45;0.50;;;;;;;15.31;78.07;100127.28;7386043;19;20040;-63
2022/10/16 00:16:15;;;;;;;10.55;0.43;;;;;;;15.32;78.41;100132.38;7383528;19;20022;-61
2022/10/16 00:18:42;;;;;;;10.27;0.50;;;;;;;15.33;78.39;100141.16;7386377;19;20015;-62
2022/10/16 00:21:13;;;;;;;12.57;1.05;;;;;;;15.33;78.16;100136.66;7384476;19;20047;-63
2022/10/16 00:23:40;;;;;;;6.90;1.15;;;;;;;15.31;78.23;100143.19;7382937;19;20756;-62
2022/10/16 00:26:10;;;;;;;12.45;0.98;;;;;;;15.28;77.94;100144.41;7385402;19;20482;-62
2022/10/16 00:28:38;;;;;;;9.90;0.90;;;;;;;15.26;78.42;100159.69;7382950;19;20150;-63
2022/10/16 00:31:07;;;;;;;8.68;0.70;;;;;;;15.27;78.53;100152.56;7385278;19;20018;-62
2022/10/16 00:33:35;;;;;;;9.65;0.63;;;;;;;15.24;78.47;100150.28;7383791;19;20046;-62
2022/10/16 00:36:04;;;;;;;8.02;0.98;;;;;;;15.23;78.73;100148.66;7384575;19;20015;-62
2022/10/16 00:38:31;;;;;;;8.63;0.50;;;;;;;15.24;78.44;100158.22;7382347;19;20601;-62
2022/10/16 00:40:58;;;;;;;9.95;0.50;;;;;;;15.21;78.95;100150.69;7385022;19;20019;-63
2022/10/16 00:43:53;;;;;;;16.05;1.83;;;;;;;15.20;79.00;100143.75;7383085;19;20486;-63
2022/10/16 00:46:23;;;;;;;9.27;0.68;;;;;;;15.15;78.95;100152.31;7384715;19;20363;-62
2022/10/16 00:49:01;;;;;;;7.00;0.40;;;;;;;15.12;79.32;100159.84;7381414;19;20010;-63
2022/10/16 00:51:35;;;;;;;12.98;0.85;;;;;;;15.11;79.42;100152.91;7385035;19;20483;-63
2022/10/16 00:54:07;;;;;;;11.20;0.68;;;;;;;15.09;79.58;100153.09;7379578;19;20022;-61
2022/10/16 00:56:34;;;;;;;12.10;1.10;;;;;;;15.09;79.64;100155.75;7383309;19;20026;-62
2022/10/16 00:59:11;;;;;;;6.60;0.80;;;;;;;15.07;79.98;100156.97;7385518;19;20038;-62
2022/10/16 01:01:38;;;;;;;6.40;0.70;;;;;;;15.06;80.34;100157.97;7384125;19;20119;-62
2022/10/16 01:04:05;;;;;;;11.85;0.70;;;;;;;15.04;80.45;100158.16;7385484;19;20010;-62
2022/10/16 01:06:40;;;;;;;18.08;2.05;;;;;;;15.05;80.66;100165.13;7384038;19;20018;-62
2022/10/16 01:09:34;;;;;;;10.40;0.40;;;;;;;15.06;80.88;100165.94;7381898;19;20038;-62
2022/10/16 01:12:08;;;;;;;10.23;0.60;;;;;;;15.01;80.40;100161.22;7384018;19;20015;-61
2022/10/16 01:15:09;;;;;;;7.82;0.65;;;;;;;14.97;80.42;100171.41;7392189;19;20046;-61
2022/10/16 01:17:42;;;;;;;8.55;0.55;;;;;;;14.97;80.48;100173.25;7387562;19;20641;-62
2022/10/16 01:20:26;;;;;;;7.25;0.40;;;;;;;14.98;80.29;100175.69;7391125;19;20014;-62
2022/10/16 01:23:14;;;;;;;13.88;0.98;;;;;;;14.99;80.07;100184.44;7390488;19;20019;-63
2022/10/16 01:26:02;;;;;;;9.95;0.80;;;;;;;14.97;79.79;100181.19;7390728;19;20006;-62
2022/10/16 01:28:44;;;;;;;12.48;0.52;;;;;;;14.94;80.28;100179.75;7389335;19;20123;-63
2022/10/16 01:31:17;;;;;;;7.73;0.67;;;;;;;14.93;80.06;100174.66;7391774;19;20014;-62
2022/10/16 01:33:53;;;;;;;11.23;0.80;;;;;;;14.92;80.12;100173.00;7390223;19;20275;-63
2022/10/16 01:36:51;;;;;;;9.88;1.40;;;;;;;14.93;80.33;100178.09;7389092;19;20043;-63
2022/10/16 01:39:24;;;;;;;7.65;0.80;;;;;;;14.96;80.29;100185.66;7388382;19;20628;-62
2022/10/16 01:42:16;;;;;;;15.52;0.70;;;;;;;14.94;80.17;100198.28;7390984;19;20015;-62
2022/10/16 01:44:46;;;;;;;12.40;0.50;;;;;;;14.93;80.18;100199.28;7391884;19;20691;-62
2022/10/16 01:47:15;;;;;;;17.42;0.98;;;;;;;14.91;80.03;100193.41;7390160;19;20014;-62
2022/10/16 01:49:44;;;;;;;7.00;0.77;;;;;;;14.90;80.38;100194.41;7388236;19;20019;-62
2022/10/16 01:52:18;;;;;;;11.68;0.80;;;;;;;14.91;80.39;100195.22;7392840;19;20007;-62
2022/10/16 01:54:48;;;;;;;14.27;0.88;;;;;;;14.87;80.50;100191.34;7388909;19;20010;-61
2022/10/16 01:57:16;;;;;;;13.75;1.45;;;;;;;14.84;80.58;100186.41;7389805;19;20522;-62
2022/10/16 01:59:51;;;;;;;15.07;0.60;;;;;;;14.83;80.88;100190.09;7390818;19;20034;-63
2022/10/16 02:02:21;;;;;;;9.82;0.82;;;;;;;14.82;80.77;100207.81;7390468;19;20044;-63
2022/10/16 02:04:54;;;;;;;6.35;1.23;;;;;;;14.83;80.98;100201.47;7390728;19;20471;-63
2022/10/16 02:07:22;;;;;;;7.20;0.52;;;;;;;14.85;81.38;100194.16;7389724;19;20731;-63
2022/10/16 02:09:49;;;;;;;14.20;0.60;;;;;;;14.88;81.56;100199.06;7385249;19;20015;-63
2022/10/16 02:12:26;;;;;;;14.82;0.90;;;;;;;14.87;80.71;100207.22;7389869;19;20022;-62
2022/10/16 02:14:54;;;;;;;10.40;0.50;;;;;;;14.83;80.17;100209.44;7390439;19;20583;-62
2022/10/16 02:17:21;;;;;;;7.18;0.30;;;;;;;14.82;80.06;100204.34;7389289;19;20019;-61
2022/10/16 02:19:51;;;;;;;12.23;0.60;;;;;;;14.81;79.97;100214.13;7386948;19;20038;-62
2022/10/16 02:22:33;;;;;;;8.43;0.40;;;;;;;14.73;79.80;100214.25;7389424;19;20018;-63
2022/10/16 02:25:13;;;;;;;9.25;1.30;;;;;;;14.73;79.62;100224.06;7386765;19;20018;-61
2022/10/16 02:28:19;;;;;;;6.30;0.50;;;;;;;14.72;80.01;100223.25;7388272;19;20033;-62
2022/10/16 02:30:57;;;;;;;11.60;0.90;;;;;;;14.72;79.66;100228.53;7389689;19;20022;-62
2022/10/16 02:33:36;;;;;;;7.07;0.40;;;;;;;14.71;79.82;100228.72;7389593;19;20014;-62
2022/10/16 02:36:03;;;;;;;10.45;0.75;;;;;;;14.70;79.69;100233.19;7389432;19;20045;-62
2022/10/16 02:38:30;;;;;;;11.40;0.40;;;;;;;14.69;79.89;100220.16;7387878;19;20006;-62
2022/10/16 02:40:58;;;;;;;7.53;0.52;;;;;;;14.69;80.18;100225.44;7388309;19;20011;-62
2022/10/16 02:43:29;;;;;;;9.00;0.50;;;;;;;14.69;79.73;100222.78;7388874;19;20011;-62
2022/10/16 02:45:56;;;;;;;11.10;0.60;;;;;;;14.68;79.86;100234.41;7388236;19;20039;-62
2022/10/16 02:48:23;;;;;;;9.88;0.70;;;;;;;14.66;80.10;100237.25;7387837;19;20033;-62
2022/10/16 02:50:50;;;;;;;8.68;0.73;;;;;;;14.67;80.06;100238.06;7387632;19;20021;-62
2022/10/16 02:53:17;;;;;;;8.52;0.50;;;;;;;14.64;79.91;100228.69;7386604;19;20018;-62
2022/10/16 02:55:44;;;;;;;11.02;0.80;;;;;;;14.64;80.14;100249.84;7387748;19;20048;-62
2022/10/16 02:58:11;;;;;;;6.28;0.57;;;;;;;14.65;80.08;100253.31;7387657;19;20014;-62
2022/10/16 03:00:38;;;;;;;12.10;0.63;;;;;;;14.63;79.79;100260.66;7389431;19;20031;-62
2022/10/16 03:03:05;;;;;;;9.02;0.38;;;;;;;14.60;79.75;100259.22;7387452;19;20150;-62
2022/10/16 03:05:31;;;;;;;6.47;0.30;;;;;;;14.61;79.17;100266.16;7387992;19;20669;-63
2022/10/16 03:08:00;;;;;;;7.38;0.32;;;;;;;14.59;79.84;100260.22;7383346;19;20678;-62
2022/10/16 03:10:27;;;;;;;9.85;0.57;;;;;;;14.59;79.92;100268.16;7383499;19;20031;-63
2022/10/16 03:12:54;;;;;;;4.55;0.40;;;;;;;14.61;79.85;100270.63;7388878;19;20019;-62
2022/10/16 03:15:21;;;;;;;9.68;0.47;;;;;;;14.60;79.13;100271.63;7387508;19;20026;-62
2022/10/16 03:17:47;;;;;;;7.50;0.30;;;;;;;14.54;79.20;100279.31;7387533;19;20022;-61
2022/10/16 03:20:14;;;;;;;11.98;0.63;;;;;;;14.54;79.18;100283.81;7386752;19;20305;-62
2022/10/16 03:22:41;;;;;;;5.53;0.30;;;;;;;14.52;79.08;100283.19;7385980;19;20038;-62
2022/10/16 03:25:08;;;;;;;7.10;0.43;;;;;;;14.50;79.25;100282.56;7386278;19;20014;-62
2022/10/16 03:27:35;;;;;;;5.70;0.35;;;;;;;14.48;79.39;100282.72;7386840;19;20038;-62
2022/10/16 03:30:02;;;;;;;7.75;0.25;;;;;;;14.47;79.09;100281.13;7385081;19;20046;-62
2022/10/16 03:32:30;;;;;;;7.40;0.57;;;;;;;14.48;79.16;100280.09;7387833;19;20014;-62
2022/10/16 03:34:57;;;;;;;12.25;0.55;;;;;;;14.47;79.67;100286.41;7386398;19;20018;-62
2022/10/16 03:37:24;;;;;;;12.63;0.75;;;;;;;14.42;79.30;100282.69;7386432;19;20050;-62
2022/10/16 03:39:52;;;;;;;8.20;0.30;;;;;;;14.41;79.16;100278.41;7386740;19;20027;-62
2022/10/16 03:42:19;;;;;;;6.05;0.55;;;;;;;14.37;79.55;100280.63;7383631;19;20102;-62
2022/10/16 03:44:45;;;;;;;6.05;0.82;;;;;;;14.37;79.77;100287.75;7387062;19;21457;-62
2022/10/16 03:47:12;;;;;;;6.97;0.30;;;;;;;14.37;79.19;100287.75;7383724;19;20042;-63
2022/10/16 03:49:39;;;;;;;7.53;0.30;;;;;;;14.38;79.76;100299.94;7383035;19;20076;-62
2022/10/16 03:52:06;;;;;;;7.55;0.30;;;;;;;14.36;79.63;100300.16;7387633;19;20038;-62
2022/10/16 03:54:33;;;;;;;6.82;0.35;;;;;;;14.37;79.92;100304.44;7385753;19;20074;-62
2022/10/16 03:56:59;;;;;;;6.65;0.32;;;;;;;14.37;79.84;100308.94;7386348;19;20011;-62
2022/10/16 03:59:26;;;;;;;5.80;0.35;;;;;;;14.37;79.82;100309.75;7381877;19;20684;-62
2022/10/16 04:01:53;;;;;;;10.40;0.40;;;;;;;14.37;80.13;100316.88;7384090;19;20022;-62
2022/10/16 04:04:20;;;;;;;10.35;0.30;;;;;;;14.35;80.00;100310.91;7385915;19;20099;-62
2022/10/16 04:06:47;;;;;;;9.82;0.40;;;;;;;14.36;79.96;100308.09;7386835;19;20355;-62
2022/10/16 04:09:13;;;;;;;10.15;0.50;;;;;;;14.30;79.51;100327.34;7383919;19;20038;-62
2022/10/16 04:11:40;;;;;;;6.53;0.25;;;;;;;14.30;79.83;100329.19;7386408;19;20014;-62
2022/10/16 04:14:07;;;;;;;9.20;0.40;;;;;;;14.31;79.82;100344.06;7384515;19;20478;-62
2022/10/16 04:16:34;;;;;;;8.60;0.30;;;;;;;14.32;80.00;100343.88;7384223;19;20038;-62
2022/10/16 04:19:01;;;;;;;9.52;1.02;;;;;;;14.32;79.81;100341.22;7385617;19;20010;-62
2022/10/16 04:21:28;;;;;;;6.97;0.57;;;;;;;14.33;79.01;100342.03;7384818;19;20039;-62
2022/10/16 04:23:55;;;;;;;7.53;0.47;;;;;;;14.32;79.26;100353.63;7384450;19;20010;-63
2022/10/16 04:26:22;;;;;;;12.57;1.08;;;;;;;14.31;79.70;100357.28;7385003;19;20018;-63
2022/10/16 04:28:48;;;;;;;8.57;0.65;;;;;;;14.31;79.49;100371.34;7384226;19;20014;-63
2022/10/16 04:31:15;;;;;;;8.85;0.40;;;;;;;14.29;79.75;100370.69;7385814;19;20011;-63
2022/10/16 04:33:43;;;;;;;6.05;0.30;;;;;;;14.26;79.85;100372.91;7385463;19;20376;-62
2022/10/16 04:36:10;;;;;;;10.55;0.40;;;;;;;14.24;79.96;100385.50;7384908;19;20038;-63
2022/10/16 04:38:37;;;;;;;7.30;0.55;;;;;;;14.22;79.95;100390.97;7381963;19;20035;-63
2022/10/16 04:41:04;;;;;;;6.03;0.38;;;;;;;14.20;80.40;100392.19;7384059;19;20043;-62
2022/10/16 04:43:31;;;;;;;9.40;0.30;;;;;;;14.22;80.61;100408.69;7385213;19;20018;-62
2022/10/16 04:45:58;;;;;;;9.98;0.70;;;;;;;14.22;80.80;100411.34;7384900;19;20035;-63
2022/10/16 04:48:25;;;;;;;7.05;0.30;;;;;;;14.22;81.01;100414.00;7389085;19;20034;-63
2022/10/16 04:50:52;;;;;;;8.90;0.38;;;;;;;14.20;80.79;100416.00;7388600;19;20044;-63
2022/10/16 04:53:20;;;;;;;11.00;0.47;;;;;;;14.17;80.86;100417.16;7391514;19;20014;-62
2022/10/16 04:55:47;;;;;;;7.68;0.38;;;;;;;14.16;80.98;100420.84;7390003;19;20018;-63
2022/10/16 04:58:14;;;;;;;5.68;0.38;;;;;;;14.16;80.96;100422.66;7388484;19;20029;-61
2022/10/16 05:00:41;;;;;;;4.15;0.38;;;;;;;14.14;80.98;100423.66;7392819;19;20687;-62
2022/10/16 05:03:08;;;;;;;6.60;0.38;;;;;;;14.14;81.18;100428.97;7391142;19;20010;-62
2022/10/16 05:05:36;;;;;;;12.18;0.43;;;;;;;14.12;81.35;100433.59;7390743;19;20011;-62
2022/10/16 05:08:03;;;;;;;8.20;0.50;;;;;;;14.13;81.32;100442.38;7391364;19;20018;-62
2022/10/16 05:10:30;;;;;;;9.80;0.73;;;;;;;14.13;81.37;100451.13;7388712;19;20030;-63
2022/10/16 05:12:57;;;;;;;11.65;0.50;;;;;;;14.11;81.43;100452.34;7389688;19;20014;-63
2022/10/16 05:15:25;;;;;;;13.02;0.50;;;;;;;14.12;81.24;100456.59;7390627;19;20438;-63
2022/10/16 05:17:53;;;;;;;10.98;0.40;;;;;;;14.09;81.03;100456.97;7391236;19;20010;-63
2022/10/16 05:20:20;;;;;;;6.72;0.47;;;;;;;14.09;80.87;100465.75;7389687;19;20691;-63
2022/10/16 05:22:47;;;;;;;6.45;0.40;;;;;;;14.07;80.64;100467.75;7387827;19;20022;-62
2022/10/16 05:25:14;;;;;;;6.45;1.00;;;;;;;14.04;80.70;100467.28;7390606;19;20014;-62
2022/10/16 05:27:41;;;;;;;3.45;0.40;;;;;;;14.04;80.65;100464.66;7390453;19;20493;-62
2022/10/16 05:30:08;;;;;;;9.63;0.95;;;;;;;14.01;80.46;100481.72;7390018;19;20391;-62
2022/10/16 05:32:38;;;;;;;6.25;0.50;;;;;;;13.99;80.42;100481.06;7391762;19;20464;-62
2022/10/16 05:35:06;;;;;;;7.10;0.43;;;;;;;13.96;79.61;100481.47;7391608;19;20070;-62
2022/10/16 05:37:38;;;;;;;8.38;0.40;;;;;;;14.00;79.90;100489.84;7390870;19;20038;-62
2022/10/16 05:40:05;;;;;;;7.55;0.52;;;;;;;14.03;79.56;100490.28;7390733;19;20043;-62
2022/10/16 05:42:32;;;;;;;8.13;0.50;;;;;;;14.05;79.45;100496.22;7389554;19;20018;-62
2022/10/16 05:44:58;;;;;;;6.35;0.40;;;;;;;14.08;79.41;100506.44;7390357;19;20361;-62
2022/10/16 05:47:25;;;;;;;4.95;0.47;;;;;;;14.07;78.25;100509.25;7389624;19;20029;-62
2022/10/16 05:49:53;;;;;;;5.82;0.32;;;;;;;14.02;77.96;100508.97;7387357;19;20026;-62
2022/10/16 05:52:20;;;;;;;5.07;0.43;;;;;;;14.03;78.01;100507.97;7388510;19;20018;-62
2022/10/16 05:54:46;;;;;;;7.13;0.30;;;;;;;14.05;78.16;100519.22;7389897;19;20472;-62
2022/10/16 05:57:13;;;;;;;6.78;0.60;;;;;;;14.07;78.49;100523.28;7389158;19;20419;-62
2022/10/16 05:59:40;;;;;;;7.22;0.40;;;;;;;14.07;77.94;100527.75;7388240;19;20041;-61
2022/10/16 06:02:12;;;;;;;8.30;0.52;;;;;;;14.06;77.90;100523.50;7389449;19;20087;-62
2022/10/16 06:04:39;;;;;;;11.25;0.70;;;;;;;14.03;77.92;100518.56;7386837;19;20042;-63
2022/10/16 06:07:06;;;;;;;6.80;0.30;;;;;;;14.01;78.07;100529.34;7389621;19;20018;-63
2022/10/16 06:09:33;;;;;;;11.95;1.00;;;;;;;13.99;78.40;100531.34;7388555;19;20041;-63
2022/10/16 06:11:59;;;;;;;11.95;0.80;;;;;;;13.96;78.38;100531.72;7389652;19;20010;-63
2022/10/16 06:14:26;;;;;;;11.43;0.57;;;;;;;13.96;78.53;100536.19;7389612;19;20010;-63
2022/10/16 06:16:53;;;;;;;12.07;0.55;;;;;;;13.94;78.47;100541.66;7388100;19;20475;-62
2022/10/16 06:19:20;;;;;;;8.43;0.50;;;;;;;13.91;78.84;100534.09;7388869;19;20010;-62
2022/10/16 06:21:47;;;;;;;10.55;1.42;;;;;;;13.89;78.62;100538.72;7388109;19;20034;-63
2022/10/16 06:24:14;;;;;;;7.55;0.60;;;;;;;13.90;78.89;100542.19;7388019;19;20047;-63
2022/10/16 06:26:41;;;;;;;10.57;0.50;;;;;;;13.87;78.70;100548.66;7386248;19;20541;-62
2022/10/16 06:29:08;;;;;;;9.18;0.30;;;;;;;13.87;78.86;100543.38;7387706;19;20054;-63
2022/10/16 06:31:35;;;;;;;6.88;0.30;;;;;;;13.89;79.01;100553.78;7389072;19;20027;-63
2022/10/16 06:34:04;;;;;;;5.00;0.52;;;;;;;13.87;78.66;100548.66;7388072;19;20462;-62
2022/10/16 06:36:31;;;;;;;11.70;0.82;;;;;;;13.89;78.92;100556.41;7389196;19;20018;-62
2022/10/16 06:38:58;;;;;;;5.75;0.32;;;;;;;13.93;79.23;100553.22;7382559;19;20866;-62
2022/10/16 06:41:25;;;;;;;7.65;0.32;;;;;;;13.92;78.61;100548.94;7389290;19;20113;-62
2022/10/16 06:43:52;;;;;;;11.75;0.93;;;;;;;13.92;78.39;100558.69;7389753;19;20038;-62
2022/10/16 06:46:22;;;;;;;14.13;1.48;;;;;;;13.92;78.64;100551.56;7388548;19;20014;-61
2022/10/16 06:48:49;;;;;;;11.10;0.63;;;;;;;13.92;78.51;100553.41;7388212;19;20886;-62
2022/10/16 06:51:21;;;;;;;10.93;0.93;;;;;;;13.93;78.50;100573.56;7384953;19;20018;-62
2022/10/16 06:53:53;;;;;;;4.53;0.68;;;;;;;13.93;78.21;100570.91;7388219;19;20643;-61
2022/10/16 06:56:30;;;;;;;9.98;0.60;;;;;;;13.91;78.42;100578.22;7386414;19;20019;-61
2022/10/16 06:58:58;;;;;;;6.85;0.30;;;;;;;13.90;78.85;100581.88;7388771;19;20035;-62
2022/10/16 07:01:26;;;;;;;10.02;0.50;;;;;;;13.89;78.68;100598.72;7388461;19;20011;-62
2022/10/16 07:03:53;;;;;;;9.85;0.77;;;;;;;13.87;78.64;100598.06;7387166;19;20022;-61
2022/10/16 07:06:22;;;;;;;9.30;0.50;;;;;;;13.90;78.39;100610.97;7388409;19;20042;-63
2022/10/16 07:08:49;;;;;;;9.20;1.35;;;;;;;13.91;78.10;100615.25;7387423;19;20474;-62
2022/10/16 07:11:21;;;;;;;7.38;0.63;;;;;;;13.90;78.11;100618.91;7384868;19;20044;-62
2022/10/16 07:13:50;;;;;;;11.70;0.53;;;;;;;13.90;78.34;100621.53;7387275;19;20026;-63
2022/10/16 07:16:25;;;;;;;5.05;0.30;;;;;;;13.92;78.46;100632.75;7385203;19;20291;-63
2022/10/16 07:18:58;;;;;;;9.20;0.68;;;;;;;13.95;78.17;100645.63;7385613;19;20026;-61
2022/10/16 07:21:29;;;;;;;6.78;0.30;;;;;;;13.94;78.30;100636.88;7386411;19;20010;-64
2022/10/16 07:23:59;;;;;;;5.75;0.95;;;;;;;13.95;78.27;100643.81;7384928;19;20455;-64
2022/10/16 07:26:27;;;;;;;11.65;0.75;;;;;;;13.95;78.25;100649.09;7390356;19;20082;-63
2022/10/16 07:28:54;;;;;;;8.68;0.73;;;;;;;13.96;78.45;100657.88;7388403;19;20439;-61
2022/10/16 07:31:22;;;;;;;8.43;0.40;;;;;;;13.98;78.40;100650.56;7386891;19;20082;-62
2022/10/16 07:33:49;;;;;;;7.53;0.85;;;;;;;14.01;78.43;100658.97;7385616;19;20025;-63
2022/10/16 07:36:18;;;;;;;9.57;0.55;;;;;;;14.03;78.08;100661.41;7388518;19;20579;-62
2022/10/16 07:38:46;;;;;;;14.95;0.52;;;;;;;14.03;78.21;100662.25;7384355;19;20015;-62
2022/10/16 07:41:15;;;;;;;19.38;0.93;;;;;;;14.07;77.92;100657.41;7388935;19;20046;-61
2022/10/16 07:43:49;;;;;;;7.05;0.50;;;;;;;14.09;78.14;100672.13;7388995;19;20006;-61
2022/10/16 11:04:29;;;;;;;10.00;0.50;;;;;;;16.09;70.97;100823.84;7257106;19;3015979;-59
2022/10/16 11:07:31;;;;;;;8.25;0.43;;;;;;;16.15;70.88;100820.44;7420770;19;20018;-59
2022/10/16 11:10:16;;;;;;;9.27;0.47;;;;;;;16.15;70.57;100823.88;7414327;19;20010;-58
2022/10/16 11:12:49;;;;;;;7.15;0.43;;;;;;;16.17;70.05;100818.38;7420015;19;20034;-60
2022/10/16 11:15:21;;;;;;;;;;;;;;;16.18;70.08;100822.69;7421815;19;20006;-60
2022/10/16 11:18:10;;;;;;;7.38;0.82;;;;;;;16.16;70.04;100822.06;7421004;19;19918;-58
2022/10/16 11:20:44;;;;;;;8.45;0.60;;;;;;;16.15;70.39;100817.78;7419514;19;20017;-59
2022/10/16 11:23:33;;;;;;;4.47;0.57;;;;;;;16.15;70.54;100823.88;7419987;19;20021;-57
2022/10/16 11:26:06;;;;;;;6.88;0.38;;;;;;;16.14;70.02;100819.59;7415913;19;20347;-59
2022/10/16 11:28:39;;;;;;;8.20;0.43;;;;;;;16.15;69.92;100820.44;7420467;19;20022;-60
2022/10/16 11:31:32;;;;;;;5.43;0.57;;;;;;;16.17;70.54;100821.88;7420900;19;20018;-58
2022/10/16 11:34:06;;;;;;;8.77;1.33;;;;;;;16.16;70.29;100816.75;7421120;19;20064;-60
2022/10/16 11:36:42;;;;;;;6.10;0.70;;;;;;;16.16;70.39;100811.44;7418698;19;20010;-62
2022/10/16 11:39:22;;;;;;;6.93;0.40;;;;;;;16.15;70.27;100805.28;7421611;19;20358;-59
2022/10/16 11:42:02;;;;;;;5.15;0.40;;;;;;;16.16;70.39;100804.28;7421050;19;20022;-61
2022/10/16 11:45:04;;;;;;;6.78;0.73;;;;;;;16.18;70.83;100812.06;7419206;19;20033;-61
2022/10/16 11:47:39;;;;;;;8.52;0.50;;;;;;;16.18;71.32;100814.72;7421466;19;20014;-58
2022/10/16 11:50:34;;;;;;;5.90;0.38;;;;;;;16.19;70.59;100811.91;7419947;19;20022;-60
2022/10/16 11:53:14;;;;;;;6.90;0.40;;;;;;;16.20;69.45;100810.84;7420791;19;20010;-60
2022/10/16 11:55:43;;;;;;;6.82;0.55;;;;;;;16.21;68.94;100811.69;7414725;19;20015;-59
2022/10/16 11:58:19;;;;;;;7.53;0.55;;;;;;;16.25;67.95;100810.31;7423202;19;20014;-61
2022/10/16 12:00:56;;;;;;;6.80;0.47;;;;;;;16.31;68.69;100814.84;7418854;19;20017;-60
2022/10/16 12:03:29;;;;;;;5.55;0.57;;;;;;;16.31;67.11;100816.66;7409127;19;20022;-60
2022/10/16 12:06:19;;;;;;;6.25;0.52;;;;;;;16.35;66.85;100818.78;7391348;19;20014;-57
2022/10/16 12:08:47;;;;;;;3.85;0.60;;;;;;;16.37;66.87;100808.78;7392566;19;20007;-60
2022/10/16 12:11:26;;;;;;;8.65;0.90;;;;;;;16.40;67.17;100823.53;7388703;19;20019;-60
2022/10/16 12:14:06;;;;;;;10.32;0.80;;;;;;;16.43;67.54;100815.16;7388702;19;20014;-60
2022/10/16 12:16:33;;;;;;;5.85;0.40;;;;;;;16.44;67.28;100814.16;7391102;19;20034;-60
2022/10/16 12:19:15;;;;;;;12.10;0.73;;;;;;;16.45;67.32;100811.31;7389391;19;20023;-60
2022/10/16 12:22:03;;;;;;;4.60;0.30;;;;;;;16.46;66.50;100814.75;7392350;19;20807;-59
2022/10/16 12:24:35;;;;;;;5.07;0.40;;;;;;;16.49;66.60;100811.75;7388580;19;20513;-60
2022/10/16 12:27:03;;;;;;;11.33;0.93;;;;;;;16.52;66.42;100812.16;7392272;19;20014;-59
2022/10/16 12:29:42;;;;;;;6.60;0.43;;;;;;;16.58;67.08;100814.09;7389946;19;20034;-59
2022/10/16 12:32:31;;;;;;;7.15;0.50;;;;;;;16.60;66.96;100798.81;7391312;19;20007;-59
2022/10/16 12:35:26;;;;;;;7.68;0.80;;;;;;;16.62;66.31;100795.94;7389596;19;20355;-59
2022/10/16 12:37:54;;;;;;;8.18;0.60;;;;;;;16.64;66.14;100791.25;7392393;19;20034;-58
2022/10/16 12:40:34;;;;;;;7.57;1.20;;;;;;;16.66;66.32;100790.03;7386553;19;20032;-59
2022/10/16 12:43:20;;;;;;;11.68;1.38;;;;;;;16.70;66.00;100790.50;7391514;19;20021;-59
2022/10/16 12:46:09;;;;;;;7.25;1.73;;;;;;;16.74;66.38;100780.28;7386016;19;20319;-57
2022/10/16 12:48:39;;;;;;;11.57;2.25;;;;;;;16.76;65.65;100784.38;7392071;19;20018;-60
2022/10/16 12:51:22;;;;;;;11.20;1.83;;;;;;;16.79;65.42;100784.00;7389517;19;20029;-60
2022/10/16 12:54:02;;;;;;;14.50;1.90;;;;;;;16.84;65.40;100783.41;7388231;19;20516;-59
2022/10/16 12:56:36;;;;;;;10.55;1.23;;;;;;;16.86;66.14;100782.22;7381210;19;20010;-58
2022/10/16 12:59:12;;;;;;;7.57;0.80;;;;;;;16.87;66.32;100775.88;7389575;19;20026;-59
2022/10/16 13:02:09;;;;;;;11.63;0.80;;;;;;;16.88;67.05;100780.19;7390226;19;20010;-60
2022/10/16 13:05:18;;;;;;;7.72;0.50;;;;;;;16.91;67.38;100771.00;7389670;19;20007;-62
2022/10/16 13:08:29;;;;;;;6.55;0.75;;;;;;;16.92;67.60;100778.75;7383513;19;20450;-60
2022/10/16 13:11:20;;;;;;;8.68;0.50;;;;;;;16.93;68.14;100772.44;7385566;19;20018;-60
2022/10/16 13:14:14;;;;;;;6.82;0.65;;;;;;;16.94;68.84;100766.09;7388215;19;20014;-59
2022/10/16 13:17:08;;;;;;;6.70;0.88;;;;;;;16.94;68.19;100771.44;7387812;19;20487;-60
2022/10/16 13:19:53;;;;;;;7.07;0.60;;;;;;;16.98;68.33;100774.50;7390040;19;20018;-61
2022/10/16 13:22:41;;;;;;;10.13;1.75;;;;;;;17.00;68.54;100781.28;7389745;19;20482;-62
2022/10/16 13:25:20;;;;;;;11.65;0.90;;;;;;;17.03;68.42;100783.53;7385413;19;20708;-60
2022/10/16 13:27:56;;;;;;;5.68;0.88;;;;;;;17.09;68.74;100780.09;7388767;19;20682;-65
2022/10/16 13:30:28;;;;;;;6.25;0.60;;;;;;;17.14;69.05;100786.66;7387836;19;20015;-56
2022/10/16 13:33:12;;;;;;;6.05;0.60;;;;;;;17.18;69.31;100785.25;7388042;19;20086;-60
2022/10/16 13:35:49;;;;;;;8.77;0.80;;;;;;;17.22;69.05;100776.66;7388927;19;20011;-58
2022/10/16 13:38:21;;;;;;;13.25;1.00;;;;;;;17.28;69.02;100780.38;7388009;19;20027;-60
2022/10/16 13:41:18;;;;;;;11.02;1.20;;;;;;;17.31;68.79;100772.84;7387104;19;20014;-60
2022/10/16 13:43:50;;;;;;;9.38;0.50;;;;;;;17.33;68.45;100770.78;7388386;19;20014;-60
2022/10/16 13:46:20;;;;;;;8.55;0.68;;;;;;;17.34;68.20;100760.97;7386172;19;20011;-57
2022/10/16 13:49:04;;;;;;;6.68;1.00;;;;;;;17.35;68.09;100759.97;7389613;19;20014;-58
2022/10/16 13:51:32;;;;;;;10.75;0.77;;;;;;;17.34;67.84;100755.66;7388217;19;20018;-60
2022/10/16 13:53:59;;;;;;;10.10;0.50;;;;;;;17.35;67.82;100752.00;7385887;19;20010;-60
2022/10/16 13:56:29;;;;;;;6.63;0.70;;;;;;;17.35;67.65;100752.81;7385057;19;20328;-59
2022/10/16 13:59:01;;;;;;;6.53;0.70;;;;;;;17.37;68.13;100750.75;7389539;19;20011;-60
2022/10/16 14:01:31;;;;;;;9.95;0.57;;;;;;;17.36;68.14;100759.78;7388478;19;20485;-60
2022/10/16 14:04:05;;;;;;;14.82;0.60;;;;;;;17.38;68.97;100757.72;7387085;19;20733;-60
2022/10/16 14:06:33;;;;;;;5.35;0.43;;;;;;;17.39;68.77;100763.88;7388156;19;20030;-59
2022/10/16 14:09:06;;;;;;;6.10;0.80;;;;;;;17.40;69.10;100769.00;7387644;19;20023;-61
2022/10/16 14:11:37;;;;;;;9.00;0.60;;;;;;;17.40;69.17;100761.00;7383007;19;20014;-60
2022/10/16 14:14:03;;;;;;;5.22;0.40;;;;;;;17.40;69.33;100754.88;7385785;19;20067;-64
2022/10/16 14:16:32;;;;;;;8.05;0.55;;;;;;;17.41;69.68;100767.97;7388555;19;20025;-60
2022/10/16 14:19:05;;;;;;;10.98;0.70;;;;;;;17.42;69.17;100761.63;7385236;19;20557;-59
2022/10/16 14:21:33;;;;;;;12.52;1.25;;;;;;;17.43;69.26;100754.47;7385299;19;20683;-60
2022/10/16 14:24:11;;;;;;;10.70;0.60;;;;;;;17.43;69.49;100752.63;7387296;19;20408;-58
2022/10/16 14:26:43;;;;;;;9.60;0.70;;;;;;;17.44;69.59;100748.13;7382666;19;20380;-59
2022/10/16 14:29:19;;;;;;;9.43;0.60;;;;;;;17.44;70.12;100750.78;7387526;19;20025;-59
2022/10/16 14:31:59;;;;;;;10.25;0.70;;;;;;;17.45;70.26;100755.91;7387485;19;20351;-62
2022/10/16 14:34:35;;;;;;;4.32;0.50;;;;;;;17.42;70.69;100745.66;7385396;19;20357;-61
2022/10/16 14:37:22;;;;;;;10.77;1.08;;;;;;;17.42;70.30;100756.28;7388546;19;20546;-58
2022/10/16 14:39:55;;;;;;;12.88;1.15;;;;;;;17.42;70.46;100760.81;7382174;19;20435;-58
2022/10/16 14:42:30;;;;;;;11.82;0.65;;;;;;;17.41;70.12;100751.19;7386539;19;20030;-60
2022/10/16 14:45:09;;;;;;;7.70;0.65;;;;;;;17.42;70.48;100761.63;7386353;19;20050;-63
2022/10/16 14:47:48;;;;;;;11.00;0.60;;;;;;;17.42;70.65;100758.97;7385301;19;20042;-60
2022/10/16 14:50:17;;;;;;;10.25;0.80;;;;;;;17.44;70.89;100764.09;7386107;19;20055;-60
2022/10/16 14:52:44;;;;;;;15.10;1.00;;;;;;;17.43;71.37;100757.94;7386171;19;20326;-59
2022/10/16 14:55:12;;;;;;;12.80;0.90;;;;;;;17.43;71.75;100760.59;7382839;19;20380;-59
2022/10/16 14:57:40;;;;;;;11.55;0.60;;;;;;;17.42;71.55;100750.97;7385477;19;20014;-61
2022/10/16 15:00:15;;;;;;;10.48;0.60;;;;;;;17.43;71.90;100754.47;7385089;19;20391;-60
2022/10/16 15:02:43;;;;;;;11.38;1.10;;;;;;;17.40;71.95;100750.38;7382921;19;20025;-57
2022/10/16 15:05:20;;;;;;;7.20;0.80;;;;;;;17.40;72.44;100763.69;7385350;19;20014;-59